METAR Data
IDs: Format: Raw Decoded Include TAF

Data at: 1235 UTC 26 Feb 2021

VMMC 261218Z 01009KT 9000 -RA FEW004 SCT018 BKN040 20/20 Q1010 TEMPO 4000 -RA BR